sensor_id;sensor_type;location;lat;lon;timestamp;pressure;altitude;pressure_sealevel;temperature;humidity
82743;BME280;72483;50.656;7.216;2023-10-19T00:00:13;99007.28;;;19.53;52.66
82743;BME280;72483;50.656;7.216;2023-10-19T00:02:48;99013.19;;;19.52;52.83
82743;BME280;72483;50.656;7.216;2023-10-19T00:05:15;99000.88;;;19.53;52.94
82743;BME280;72483;50.656;7.216;2023-10-19T00:07:42;99001.19;;;19.51;52.95
82743;BME280;72483;50.656;7.216;2023-10-19T00:10:09;98993.63;;;19.52;53.00
82743;BME280;72483;50.656;7.216;2023-10-19T00:12:35;98993.50;;;19.48;52.59
82743;BME280;72483;50.656;7.216;2023-10-19T00:15:03;98992.66;;;19.48;52.55
82743;BME280;72483;50.656;7.216;2023-10-19T00:17:30;98987.91;;;19.48;52.81
82743;BME280;72483;50.656;7.216;2023-10-19T00:19:58;98987.59;;;19.50;52.58
82743;BME280;72483;50.656;7.216;2023-10-19T00:22:36;98994.31;;;19.49;52.61
82743;BME280;72483;50.656;7.216;2023-10-19T00:25:03;98986.41;;;19.51;52.83
82743;BME280;72483;50.656;7.216;2023-10-19T00:27:30;98981.16;;;19.49;52.55
82743;BME280;72483;50.656;7.216;2023-10-19T00:29:56;98984.28;;;19.48;53.05
82743;BME280;72483;50.656;7.216;2023-10-19T00:32:31;98984.19;;;19.44;53.00
82743;BME280;72483;50.656;7.216;2023-10-19T00:34:57;98978.91;;;19.43;52.81
82743;BME280;72483;50.656;7.216;2023-10-19T00:37:30;98977.78;;;19.44;52.66
82743;BME280;72483;50.656;7.216;2023-10-19T00:39:59;98977.28;;;19.42;52.66
82743;BME280;72483;50.656;7.216;2023-10-19T00:42:39;98979.88;;;19.47;52.66
82743;BME280;72483;50.656;7.216;2023-10-19T00:45:11;98971.00;;;19.45;52.74
82743;BME280;72483;50.656;7.216;2023-10-19T00:47:38;98965.91;;;19.47;52.69
82743;BME280;72483;50.656;7.216;2023-10-19T00:50:07;98958.22;;;19.44;52.56
82743;BME280;72483;50.656;7.216;2023-10-19T00:52:40;98945.56;;;19.46;52.50
82743;BME280;72483;50.656;7.216;2023-10-19T00:55:13;98944.72;;;19.46;52.47
82743;BME280;72483;50.656;7.216;2023-10-19T00:57:42;98952.78;;;19.47;52.53
82743;BME280;72483;50.656;7.216;2023-10-19T01:00:12;98955.91;;;19.46;52.53
82743;BME280;72483;50.656;7.216;2023-10-19T01:02:47;98959.84;;;19.45;52.79
82743;BME280;72483;50.656;7.216;2023-10-19T01:05:17;98943.91;;;19.45;52.57
82743;BME280;72483;50.656;7.216;2023-10-19T01:07:47;98944.25;;;19.44;52.67
82743;BME280;72483;50.656;7.216;2023-10-19T01:10:23;98934.25;;;19.43;52.53
82743;BME280;72483;50.656;7.216;2023-10-19T01:12:50;98948.66;;;19.45;52.45
82743;BME280;72483;50.656;7.216;2023-10-19T01:15:18;98932.88;;;19.49;52.62
82743;BME280;72483;50.656;7.216;2023-10-19T01:17:50;98954.41;;;19.48;53.19
82743;BME280;72483;50.656;7.216;2023-10-19T01:20:20;98952.09;;;19.50;52.51
82743;BME280;72483;50.656;7.216;2023-10-19T01:22:56;98944.88;;;19.49;52.61
82743;BME280;72483;50.656;7.216;2023-10-19T01:25:42;98951.59;;;19.48;52.73
82743;BME280;72483;50.656;7.216;2023-10-19T01:28:12;98958.47;;;19.51;52.58
82743;BME280;72483;50.656;7.216;2023-10-19T01:30:42;98959.16;;;19.48;52.21
82743;BME280;72483;50.656;7.216;2023-10-19T01:33:09;98950.66;;;19.44;52.74
82743;BME280;72483;50.656;7.216;2023-10-19T01:35:40;98956.13;;;19.41;52.75
82743;BME280;72483;50.656;7.216;2023-10-19T01:38:26;98961.47;;;19.46;52.35
82743;BME280;72483;50.656;7.216;2023-10-19T01:40:56;98967.91;;;19.46;52.61
82743;BME280;72483;50.656;7.216;2023-10-19T01:43:24;98965.91;;;19.47;52.83
82743;BME280;72483;50.656;7.216;2023-10-19T01:45:55;98961.47;;;19.46;52.81
82743;BME280;72483;50.656;7.216;2023-10-19T01:48:21;98963.31;;;19.42;52.72
82743;BME280;72483;50.656;7.216;2023-10-19T01:50:59;98949.03;;;19.43;52.47
82743;BME280;72483;50.656;7.216;2023-10-19T01:53:26;98953.56;;;19.48;52.44
82743;BME280;72483;50.656;7.216;2023-10-19T01:55:55;98952.78;;;19.47;52.72
82743;BME280;72483;50.656;7.216;2023-10-19T01:58:23;98935.88;;;19.44;52.47
82743;BME280;72483;50.656;7.216;2023-10-19T02:00:50;98944.25;;;19.44;52.28
82743;BME280;72483;50.656;7.216;2023-10-19T02:03:19;98935.75;;;19.40;52.37
82743;BME280;72483;50.656;7.216;2023-10-19T02:05:47;98949.03;;;19.43;52.65
82743;BME280;72483;50.656;7.216;2023-10-19T02:08:15;98945.41;;;19.43;52.67
82743;BME280;72483;50.656;7.216;2023-10-19T02:10:47;98945.88;;;19.45;52.42
82743;BME280;72483;50.656;7.216;2023-10-19T02:13:13;98940.97;;;19.42;52.68
82743;BME280;72483;50.656;7.216;2023-10-19T02:15:42;98935.75;;;19.40;52.80
82743;BME280;72483;50.656;7.216;2023-10-19T02:18:09;98938.03;;;19.38;52.41
82743;BME280;72483;50.656;7.216;2023-10-19T02:20:35;98940.50;;;19.40;52.50
82743;BME280;72483;50.656;7.216;2023-10-19T02:23:05;98935.25;;;19.38;52.65
82743;BME280;72483;50.656;7.216;2023-10-19T02:25:32;98927.66;;;19.39;52.48
82743;BME280;72483;50.656;7.216;2023-10-19T02:28:03;98925.91;;;19.34;52.80
82743;BME280;72483;50.656;7.216;2023-10-19T02:30:29;98926.22;;;19.33;52.38
82743;BME280;72483;50.656;7.216;2023-10-19T02:32:56;98927.06;;;19.33;52.42
82743;BME280;72483;50.656;7.216;2023-10-19T02:35:22;98926.22;;;19.33;52.83
82743;BME280;72483;50.656;7.216;2023-10-19T02:37:48;98931.00;;;19.32;52.97
82743;BME280;72483;50.656;7.216;2023-10-19T02:40:14;98932.16;;;19.31;52.42
82743;BME280;72483;50.656;7.216;2023-10-19T02:42:45;98928.09;;;19.29;52.91
82743;BME280;72483;50.656;7.216;2023-10-19T02:45:14;98922.84;;;19.27;52.75
82743;BME280;72483;50.656;7.216;2023-10-19T02:47:43;98914.47;;;19.27;52.66
82743;BME280;72483;50.656;7.216;2023-10-19T02:50:09;98916.09;;;19.28;52.82
82743;BME280;72483;50.656;7.216;2023-10-19T02:52:39;98917.59;;;19.26;52.49
82743;BME280;72483;50.656;7.216;2023-10-19T02:55:07;98914.47;;;19.27;52.52
82743;BME280;72483;50.656;7.216;2023-10-19T02:57:34;98907.22;;;19.26;52.43
82743;BME280;72483;50.656;7.216;2023-10-19T03:00:00;98914.47;;;19.27;52.86
82743;BME280;72483;50.656;7.216;2023-10-19T03:02:34;98898.06;;;19.26;52.47
82743;BME280;72483;50.656;7.216;2023-10-19T03:05:01;98891.31;;;19.27;52.52
82743;BME280;72483;50.656;7.216;2023-10-19T03:07:34;98886.53;;;19.27;52.90
82743;BME280;72483;50.656;7.216;2023-10-19T03:10:00;98886.91;;;19.26;52.88
82743;BME280;72483;50.656;7.216;2023-10-19T03:12:27;98889.69;;;19.26;52.50
82743;BME280;72483;50.656;7.216;2023-10-19T03:14:53;98884.44;;;19.24;52.70
82743;BME280;72483;50.656;7.216;2023-10-19T03:17:19;98892.00;;;19.24;52.61
82743;BME280;72483;50.656;7.216;2023-10-19T03:19:46;98880.00;;;19.23;52.97
82743;BME280;72483;50.656;7.216;2023-10-19T03:22:13;98876.38;;;19.23;52.54
82743;BME280;72483;50.656;7.216;2023-10-19T03:24:39;98876.38;;;19.23;52.88
82743;BME280;72483;50.656;7.216;2023-10-19T03:27:09;98871.63;;;19.23;52.48
82743;BME280;72483;50.656;7.216;2023-10-19T03:29:38;98871.97;;;19.22;52.43
82743;BME280;72483;50.656;7.216;2023-10-19T03:32:05;98864.75;;;19.21;52.79
82743;BME280;72483;50.656;7.216;2023-10-19T03:34:33;98871.16;;;19.21;52.74
82743;BME280;72483;50.656;7.216;2023-10-19T03:37:01;98866.72;;;19.20;52.91
82743;BME280;72483;50.656;7.216;2023-10-19T03:39:31;98864.28;;;19.18;53.10
82743;BME280;72483;50.656;7.216;2023-10-19T03:41:58;98857.88;;;19.18;52.97
82743;BME280;72483;50.656;7.216;2023-10-19T03:44:26;98857.06;;;19.17;52.57
82743;BME280;72483;50.656;7.216;2023-10-19T03:46:57;98863.47;;;19.18;52.85
82743;BME280;72483;50.656;7.216;2023-10-19T03:49:26;98863.47;;;19.18;52.68
82743;BME280;72483;50.656;7.216;2023-10-19T03:51:58;98858.22;;;19.16;52.77
82743;BME280;72483;50.656;7.216;2023-10-19T03:54:27;98860.22;;;19.16;53.06
82743;BME280;72483;50.656;7.216;2023-10-19T03:56:54;98856.25;;;19.17;52.50
82743;BME280;72483;50.656;7.216;2023-10-19T03:59:22;98857.44;;;19.16;52.57
82743;BME280;72483;50.656;7.216;2023-10-19T04:01:54;98854.97;;;19.14;53.14
82743;BME280;72483;50.656;7.216;2023-10-19T04:04:21;98850.53;;;19.13;52.60
82743;BME280;72483;50.656;7.216;2023-10-19T04:06:47;98837.75;;;19.12;53.09
82743;BME280;72483;50.656;7.216;2023-10-19T04:09:15;98837.38;;;19.14;52.74
82743;BME280;72483;50.656;7.216;2023-10-19T04:11:45;98827.03;;;19.14;52.90
82743;BME280;72483;50.656;7.216;2023-10-19T04:14:15;98841.81;;;19.15;52.89
82743;BME280;72483;50.656;7.216;2023-10-19T04:16:42;98836.94;;;19.12;52.93
82743;BME280;72483;50.656;7.216;2023-10-19T04:19:09;98845.28;;;19.12;52.59
82743;BME280;72483;50.656;7.216;2023-10-19T04:21:36;98840.03;;;19.10;53.10
82743;BME280;72483;50.656;7.216;2023-10-19T04:24:05;98846.44;;;19.11;52.68
82743;BME280;72483;50.656;7.216;2023-10-19T04:26:32;98840.41;;;19.09;53.18
82743;BME280;72483;50.656;7.216;2023-10-19T04:29:03;98839.56;;;19.08;52.93
82743;BME280;72483;50.656;7.216;2023-10-19T04:31:35;98830.06;;;19.09;52.75
82743;BME280;72483;50.656;7.216;2023-10-19T04:34:03;98824.81;;;19.08;52.65
82743;BME280;72483;50.656;7.216;2023-10-19T04:36:32;98811.66;;;19.08;53.11
82743;BME280;72483;50.656;7.216;2023-10-19T04:38:59;98813.31;;;19.09;53.11
82743;BME280;72483;50.656;7.216;2023-10-19T04:41:26;98807.72;;;19.09;52.81
82743;BME280;72483;50.656;7.216;2023-10-19T04:43:53;98807.22;;;19.07;53.14
82743;BME280;72483;50.656;7.216;2023-10-19T04:46:23;98812.50;;;19.09;52.77
82743;BME280;72483;50.656;7.216;2023-10-19T04:48:50;98819.56;;;19.06;52.80
82743;BME280;72483;50.656;7.216;2023-10-19T04:51:17;98817.13;;;19.05;52.77
82743;BME280;72483;50.656;7.216;2023-10-19T04:53:43;98815.59;;;19.07;52.74
82743;BME280;72483;50.656;7.216;2023-10-19T04:56:10;98812.81;;;19.07;53.15
82743;BME280;72483;50.656;7.216;2023-10-19T04:58:38;98818.91;;;19.09;53.09
82743;BME280;72483;50.656;7.216;2023-10-19T05:01:04;98820.50;;;19.10;53.00
82743;BME280;72483;50.656;7.216;2023-10-19T05:03:32;98821.19;;;19.07;53.02
82743;BME280;72483;50.656;7.216;2023-10-19T05:05:59;98822.16;;;19.11;53.11
82743;BME280;72483;50.656;7.216;2023-10-19T05:08:26;98825.75;;;19.12;52.99
82743;BME280;72483;50.656;7.216;2023-10-19T05:10:53;98823.28;;;19.10;53.03
82743;BME280;72483;50.656;7.216;2023-10-19T05:13:20;98829.00;;;19.14;52.55
82743;BME280;72483;50.656;7.216;2023-10-19T05:15:47;98819.81;;;19.13;53.09
82743;BME280;72483;50.656;7.216;2023-10-19T05:18:16;98815.56;;;19.16;52.99
82743;BME280;72483;50.656;7.216;2023-10-19T05:20:44;98818.81;;;19.18;52.84
82743;BME280;72483;50.656;7.216;2023-10-19T05:23:11;98825.69;;;19.21;52.91
82743;BME280;72483;50.656;7.216;2023-10-19T05:25:38;98815.19;;;19.17;52.59
82743;BME280;72483;50.656;7.216;2023-10-19T05:28:05;98816.03;;;19.18;53.02
82743;BME280;72483;50.656;7.216;2023-10-19T05:30:32;98824.03;;;19.19;52.45
82743;BME280;72483;50.656;7.216;2023-10-19T05:32:59;98815.34;;;19.21;52.49
82743;BME280;72483;50.656;7.216;2023-10-19T05:35:27;98805.00;;;19.22;52.59
82743;BME280;72483;50.656;7.216;2023-10-19T05:37:56;98806.59;;;19.23;52.54
82743;BME280;72483;50.656;7.216;2023-10-19T05:40:23;98803.34;;;19.21;52.49
82743;BME280;72483;50.656;7.216;2023-10-19T05:42:55;98816.16;;;19.22;52.86
82743;BME280;72483;50.656;7.216;2023-10-19T05:45:21;98820.56;;;19.23;52.41
82743;BME280;72483;50.656;7.216;2023-10-19T05:47:48;98818.25;;;19.25;52.75
82743;BME280;72483;50.656;7.216;2023-10-19T05:50:14;98821.06;;;19.25;52.56
82743;BME280;72483;50.656;7.216;2023-10-19T05:52:41;98827.78;;;19.24;52.59
82743;BME280;72483;50.656;7.216;2023-10-19T05:55:09;98833.03;;;19.25;52.93
82743;BME280;72483;50.656;7.216;2023-10-19T05:57:37;98838.28;;;19.27;52.68
82743;BME280;72483;50.656;7.216;2023-10-19T06:00:07;98832.34;;;19.28;52.70
82743;BME280;72483;50.656;7.216;2023-10-19T06:02:38;98835.47;;;19.27;52.78
82743;BME280;72483;50.656;7.216;2023-10-19T06:05:05;98835.16;;;19.28;52.94
82743;BME280;72483;50.656;7.216;2023-10-19T06:07:32;98837.13;;;19.28;52.95
82743;BME280;72483;50.656;7.216;2023-10-19T06:09:58;98830.38;;;19.29;52.82
82743;BME280;72483;50.656;7.216;2023-10-19T06:12:30;98834.78;;;19.30;52.64
82743;BME280;72483;50.656;7.216;2023-10-19T06:14:57;98833.19;;;19.29;52.43
82743;BME280;72483;50.656;7.216;2023-10-19T06:17:24;98837.13;;;19.28;52.76
82743;BME280;72483;50.656;7.216;2023-10-19T06:19:50;98840.72;;;19.28;52.46
82743;BME280;72483;50.656;7.216;2023-10-19T06:22:17;98831.19;;;19.29;52.31
82743;BME280;72483;50.656;7.216;2023-10-19T06:24:43;98843.66;;;19.32;52.92
82743;BME280;72483;50.656;7.216;2023-10-19T06:27:10;98839.56;;;19.29;52.42
82743;BME280;72483;50.656;7.216;2023-10-19T06:29:38;98835.16;;;19.28;52.56
82743;BME280;72483;50.656;7.216;2023-10-19T06:32:04;98834.34;;;19.28;52.41
82743;BME280;72483;50.656;7.216;2023-10-19T06:34:31;98844.00;;;19.30;52.29
82743;BME280;72483;50.656;7.216;2023-10-19T06:36:57;98839.56;;;19.29;52.46
82743;BME280;72483;50.656;7.216;2023-10-19T06:39:24;98840.38;;;19.30;52.37
82743;BME280;72483;50.656;7.216;2023-10-19T06:41:51;98842.34;;;19.29;52.88
82743;BME280;72483;50.656;7.216;2023-10-19T06:44:17;98836.75;;;19.29;52.61
82743;BME280;72483;50.656;7.216;2023-10-19T06:46:45;98840.38;;;19.30;52.35
82743;BME280;72483;50.656;7.216;2023-10-19T06:49:11;98845.97;;;19.30;52.85
82743;BME280;72483;50.656;7.216;2023-10-19T06:51:38;98860.41;;;19.32;52.39
82743;BME280;72483;50.656;7.216;2023-10-19T06:54:04;98847.59;;;19.31;52.53
82743;BME280;72483;50.656;7.216;2023-10-19T06:56:33;98855.63;;;19.32;52.46
82743;BME280;72483;50.656;7.216;2023-10-19T06:59:04;98847.25;;;19.32;52.24
82743;BME280;72483;50.656;7.216;2023-10-19T07:01:33;98851.34;;;19.35;52.74
82743;BME280;72483;50.656;7.216;2023-10-19T07:04:03;98852.81;;;19.32;52.79
82743;BME280;72483;50.656;7.216;2023-10-19T07:06:29;98850.03;;;19.32;52.36
82743;BME280;72483;50.656;7.216;2023-10-19T07:08:56;98847.25;;;19.32;52.57
82743;BME280;72483;50.656;7.216;2023-10-19T07:11:23;98848.06;;;19.33;52.52
82743;BME280;72483;50.656;7.216;2023-10-19T07:13:50;98850.19;;;19.36;52.26
82743;BME280;72483;50.656;7.216;2023-10-19T07:16:16;98860.53;;;19.35;52.36
82743;BME280;72483;50.656;7.216;2023-10-19T07:18:45;98849.03;;;19.37;52.44
82743;BME280;72483;50.656;7.216;2023-10-19T07:21:13;98851.81;;;19.37;52.71
82743;BME280;72483;50.656;7.216;2023-10-19T07:23:40;98855.75;;;19.36;52.56
82743;BME280;72483;50.656;7.216;2023-10-19T07:26:06;98860.53;;;19.35;52.92
82743;BME280;72483;50.656;7.216;2023-10-19T07:28:33;98866.09;;;19.35;52.72
82743;BME280;72483;50.656;7.216;2023-10-19T07:31:00;98873.69;;;19.35;52.83
82743;BME280;72483;50.656;7.216;2023-10-19T07:33:28;98863.31;;;19.35;52.71
82743;BME280;72483;50.656;7.216;2023-10-19T07:35:55;98874.84;;;19.34;52.64
82743;BME280;72483;50.656;7.216;2023-10-19T07:38:26;98862.16;;;19.36;52.76
82743;BME280;72483;50.656;7.216;2023-10-19T07:40:54;98867.06;;;19.39;52.41
82743;BME280;72483;50.656;7.216;2023-10-19T07:43:20;98866.41;;;19.42;52.51
82743;BME280;72483;50.656;7.216;2023-10-19T07:45:50;98871.53;;;19.40;52.36
82743;BME280;72483;50.656;7.216;2023-10-19T07:48:17;98876.63;;;19.38;52.52
82743;BME280;72483;50.656;7.216;2023-10-19T07:50:44;98868.56;;;19.37;52.79
82743;BME280;72483;50.656;7.216;2023-10-19T07:53:11;98868.25;;;19.38;52.67
82743;BME280;72483;50.656;7.216;2023-10-19T07:55:39;98866.09;;;19.44;52.69
82743;BME280;72483;50.656;7.216;2023-10-19T07:58:05;98859.44;;;19.48;52.74
82743;BME280;72483;50.656;7.216;2023-10-19T08:00:32;98860.09;;;19.54;52.39
82743;BME280;72483;50.656;7.216;2023-10-19T08:03:00;98854.97;;;19.56;52.45
82743;BME280;72483;50.656;7.216;2023-10-19T08:05:27;98840.53;;;19.54;52.52
82743;BME280;72483;50.656;7.216;2023-10-19T08:07:54;98837.59;;;19.50;53.11
82743;BME280;72483;50.656;7.216;2023-10-19T08:10:22;98835.97;;;19.49;53.69
82743;BME280;72483;50.656;7.216;2023-10-19T08:12:52;98833.63;;;19.51;53.35
82743;BME280;72483;50.656;7.216;2023-10-19T08:15:19;98836.09;;;19.53;53.85
82743;BME280;72483;50.656;7.216;2023-10-19T08:17:48;98826.56;;;19.54;53.59
82743;BME280;72483;50.656;7.216;2023-10-19T08:20:15;98825.38;;;19.55;53.26
82743;BME280;72483;50.656;7.216;2023-10-19T08:22:49;98827.50;;;19.58;53.32
82743;BME280;72483;50.656;7.216;2023-10-19T08:25:16;98821.91;;;19.58;53.53
82743;BME280;72483;50.656;7.216;2023-10-19T08:27:43;98822.72;;;19.58;53.75
82743;BME280;72483;50.656;7.216;2023-10-19T08:30:12;98819.25;;;19.61;53.26
82743;BME280;72483;50.656;7.216;2023-10-19T08:32:39;98827.88;;;19.68;53.08
82743;BME280;72483;50.656;7.216;2023-10-19T08:35:07;98838.25;;;19.68;53.28
82743;BME280;72483;50.656;7.216;2023-10-19T08:37:34;98833.47;;;19.68;53.25
82743;BME280;72483;50.656;7.216;2023-10-19T08:40:00;98819.63;;;19.72;53.39
82743;BME280;72483;50.656;7.216;2023-10-19T08:42:29;98822.44;;;19.72;53.47
82743;BME280;72483;50.656;7.216;2023-10-19T08:44:56;98823.34;;;19.76;53.03
82743;BME280;72483;50.656;7.216;2023-10-19T08:47:25;98821.63;;;19.72;53.60
82743;BME280;72483;50.656;7.216;2023-10-19T08:49:53;98820.31;;;19.69;53.10
82743;BME280;72483;50.656;7.216;2023-10-19T08:52:21;98827.53;;;19.70;53.32
82743;BME280;72483;50.656;7.216;2023-10-19T08:54:49;98816.34;;;19.70;53.35
82743;BME280;72483;50.656;7.216;2023-10-19T08:57:15;98821.16;;;19.69;53.31
82743;BME280;72483;50.656;7.216;2023-10-19T08:59:43;98806.81;;;19.71;53.65
82743;BME280;72483;50.656;7.216;2023-10-19T09:02:12;98797.97;;;19.69;53.41
82743;BME280;72483;50.656;7.216;2023-10-19T09:04:43;98794.38;;;19.81;52.96
82743;BME280;72483;50.656;7.216;2023-10-19T09:07:10;98796.16;;;19.85;52.89
82743;BME280;72483;50.656;7.216;2023-10-19T09:09:37;98785.06;;;19.89;52.92
82743;BME280;72483;50.656;7.216;2023-10-19T09:12:06;98770.31;;;19.88;53.35
82743;BME280;72483;50.656;7.216;2023-10-19T09:14:34;98767.53;;;19.88;53.00
82743;BME280;72483;50.656;7.216;2023-10-19T09:17:01;98774.72;;;19.89;53.36
82743;BME280;72483;50.656;7.216;2023-10-19T09:19:36;98760.41;;;19.91;53.28
82743;BME280;72483;50.656;7.216;2023-10-19T09:22:04;98749.69;;;19.93;53.32
82743;BME280;72483;50.656;7.216;2023-10-19T09:24:33;98748.09;;;19.92;53.25
82743;BME280;72483;50.656;7.216;2023-10-19T09:27:02;98749.69;;;19.93;53.35
82743;BME280;72483;50.656;7.216;2023-10-19T09:29:28;98757.75;;;19.94;53.19
82743;BME280;72483;50.656;7.216;2023-10-19T09:31:58;98748.53;;;19.94;53.10
82743;BME280;72483;50.656;7.216;2023-10-19T09:34:29;98762.97;;;19.96;53.57
82743;BME280;72483;50.656;7.216;2023-10-19T09:36:58;98746.22;;;19.96;53.63
82743;BME280;72483;50.656;7.216;2023-10-19T09:39:28;98743.06;;;19.97;53.25
82743;BME280;72483;50.656;7.216;2023-10-19T09:42:00;98744.69;;;19.98;53.28
82743;BME280;72483;50.656;7.216;2023-10-19T09:44:33;98745.50;;;19.99;53.15
82743;BME280;72483;50.656;7.216;2023-10-19T09:47:03;98749.25;;;20.03;53.00
82743;BME280;72483;50.656;7.216;2023-10-19T09:49:36;98747.72;;;20.05;52.98
82743;BME280;72483;50.656;7.216;2023-10-19T09:52:03;98748.22;;;20.07;52.91
82743;BME280;72483;50.656;7.216;2023-10-19T09:54:45;98753.31;;;20.05;53.01
82743;BME280;72483;50.656;7.216;2023-10-19T09:57:22;98764.63;;;20.21;52.97
82743;BME280;72483;50.656;7.216;2023-10-19T09:59:51;98766.97;;;20.19;52.56
82743;BME280;72483;50.656;7.216;2023-10-19T10:02:20;98772.88;;;20.17;53.13
82743;BME280;72483;50.656;7.216;2023-10-19T10:08:39;98760.44;;;20.15;53.00
82743;BME280;72483;50.656;7.216;2023-10-19T10:11:16;98756.00;;;20.14;53.48
82743;BME280;72483;50.656;7.216;2023-10-19T10:13:44;98757.66;;;20.27;53.12
82743;BME280;72483;50.656;7.216;2023-10-19T10:16:13;98759.13;;;20.24;52.82
82743;BME280;72483;50.656;7.216;2023-10-19T10:18:41;98762.63;;;20.21;53.25
82743;BME280;72483;50.656;7.216;2023-10-19T10:21:11;98759.03;;;20.21;53.25
82743;BME280;72483;50.656;7.216;2023-10-19T10:23:42;98749.81;;;20.20;52.78
82743;BME280;72483;50.656;7.216;2023-10-19T10:26:10;98756.84;;;20.27;52.84
82743;BME280;72483;50.656;7.216;2023-10-19T10:28:38;98751.84;;;20.32;53.00
82743;BME280;72483;50.656;7.216;2023-10-19T10:31:13;98750.56;;;20.30;52.78
82743;BME280;72483;50.656;7.216;2023-10-19T10:33:42;98746.13;;;20.29;52.68
82743;BME280;72483;50.656;7.216;2023-10-19T10:36:10;98737.50;;;20.34;52.74
82743;BME280;72483;50.656;7.216;2023-10-19T10:38:37;98742.72;;;20.47;52.44
82743;BME280;72483;50.656;7.216;2023-10-19T10:41:04;98738.84;;;20.52;52.51
82743;BME280;72483;50.656;7.216;2023-10-19T10:43:49;98743.31;;;20.41;52.63
82743;BME280;72483;50.656;7.216;2023-10-19T10:46:18;98731.44;;;20.44;52.57
82743;BME280;72483;50.656;7.216;2023-10-19T10:48:45;98739.13;;;20.47;52.54
82743;BME280;72483;50.656;7.216;2023-10-19T10:51:17;98737.13;;;20.47;52.13
82743;BME280;72483;50.656;7.216;2023-10-19T10:53:46;98734.34;;;20.47;52.06
82743;BME280;72483;50.656;7.216;2023-10-19T10:56:13;98734.22;;;20.44;52.42
82743;BME280;72483;50.656;7.216;2023-10-19T10:58:39;98736.31;;;20.47;52.82
82743;BME280;72483;50.656;7.216;2023-10-19T11:01:07;98742.97;;;20.42;52.64
82743;BME280;72483;50.656;7.216;2023-10-19T11:03:35;98741.13;;;20.34;52.95
82743;BME280;72483;50.656;7.216;2023-10-19T11:06:05;98738.91;;;20.28;53.37
82743;BME280;72483;50.656;7.216;2023-10-19T11:08:33;98735.97;;;20.24;53.03
82743;BME280;72483;50.656;7.216;2023-10-19T11:11:04;98738.75;;;20.24;53.00
82743;BME280;72483;50.656;7.216;2023-10-19T11:13:31;98729.91;;;20.22;53.53
82743;BME280;72483;50.656;7.216;2023-10-19T11:16:02;98718.72;;;20.22;53.14
82743;BME280;72483;50.656;7.216;2023-10-19T11:18:31;98703.94;;;20.21;53.42
82743;BME280;72483;50.656;7.216;2023-10-19T11:21:02;98689.13;;;20.21;53.40
82743;BME280;72483;50.656;7.216;2023-10-19T11:23:37;98697.53;;;20.21;53.40
82743;BME280;72483;50.656;7.216;2023-10-19T11:26:05;98701.13;;;20.21;53.52
82743;BME280;72483;50.656;7.216;2023-10-19T11:28:32;98693.69;;;20.26;53.30
82743;BME280;72483;50.656;7.216;2023-10-19T11:31:15;98697.78;;;20.28;52.88
82743;BME280;72483;50.656;7.216;2023-10-19T11:33:44;98703.81;;;20.30;53.14
82743;BME280;72483;50.656;7.216;2023-10-19T11:36:11;98707.22;;;20.36;52.80
82743;BME280;72483;50.656;7.216;2023-10-19T11:38:40;98694.63;;;20.42;52.95
82743;BME280;72483;50.656;7.216;2023-10-19T11:41:09;98680.84;;;20.49;52.49
82743;BME280;72483;50.656;7.216;2023-10-19T11:43:38;98666.97;;;20.52;52.53
82743;BME280;72483;50.656;7.216;2023-10-19T11:46:05;98653.78;;;20.53;52.30
82743;BME280;72483;50.656;7.216;2023-10-19T11:48:33;98647.03;;;20.54;52.34
82743;BME280;72483;50.656;7.216;2023-10-19T11:51:02;98656.03;;;20.47;52.43
82743;BME280;72483;50.656;7.216;2023-10-19T11:53:31;98659.88;;;20.43;52.92
82743;BME280;72483;50.656;7.216;2023-10-19T11:56:00;98682.84;;;20.36;52.68
82743;BME280;72483;50.656;7.216;2023-10-19T11:58:26;98694.03;;;20.48;52.64
82743;BME280;72483;50.656;7.216;2023-10-19T12:00:53;98702.41;;;20.48;52.59
82743;BME280;72483;50.656;7.216;2023-10-19T12:03:20;98697.06;;;20.43;53.08
82743;BME280;72483;50.656;7.216;2023-10-19T12:05:47;98688.53;;;20.40;53.16
82743;BME280;72483;50.656;7.216;2023-10-19T12:08:15;98693.09;;;20.44;52.99
82743;BME280;72483;50.656;7.216;2023-10-19T12:10:42;98682.03;;;20.48;52.92
82743;BME280;72483;50.656;7.216;2023-10-19T12:13:09;98681.47;;;20.42;53.36
82743;BME280;72483;50.656;7.216;2023-10-19T12:15:35;98681.34;;;20.39;53.35
82743;BME280;72483;50.656;7.216;2023-10-19T12:18:02;98685.31;;;20.38;53.47
82743;BME280;72483;50.656;7.216;2023-10-19T12:20:29;98683.31;;;20.38;53.51
82743;BME280;72483;50.656;7.216;2023-10-19T12:22:56;98689.25;;;20.37;53.63
82743;BME280;72483;50.656;7.216;2023-10-19T12:25:25;98691.22;;;20.36;53.34
82743;BME280;72483;50.656;7.216;2023-10-19T12:27:58;98686.13;;;20.38;53.21
82743;BME280;72483;50.656;7.216;2023-10-19T12:30:25;98680.03;;;20.36;53.65
82743;BME280;72483;50.656;7.216;2023-10-19T12:32:59;98677.25;;;20.36;53.33
82743;BME280;72483;50.656;7.216;2023-10-19T12:35:25;98675.75;;;20.39;53.48
82743;BME280;72483;50.656;7.216;2023-10-19T12:38:07;98679.72;;;20.38;53.57
82743;BME280;72483;50.656;7.216;2023-10-19T12:40:44;98688.09;;;20.38;53.81
82743;BME280;72483;50.656;7.216;2023-10-19T12:43:11;98680.53;;;20.38;53.26
82743;BME280;72483;50.656;7.216;2023-10-19T12:45:39;98692.53;;;20.39;53.54
82743;BME280;72483;50.656;7.216;2023-10-19T12:48:06;98685.41;;;20.41;53.37
82743;BME280;72483;50.656;7.216;2023-10-19T12:50:34;98685.41;;;20.41;53.64
82743;BME280;72483;50.656;7.216;2023-10-19T12:53:01;98669.44;;;20.42;53.58
82743;BME280;72483;50.656;7.216;2023-10-19T12:55:28;98668.63;;;20.41;53.39
82743;BME280;72483;50.656;7.216;2023-10-19T12:57:57;98673.41;;;20.41;53.85
82743;BME280;72483;50.656;7.216;2023-10-19T13:00:25;98667.81;;;20.41;53.32
82743;BME280;72483;50.656;7.216;2023-10-19T13:02:54;98676.22;;;20.41;53.33
82743;BME280;72483;50.656;7.216;2023-10-19T13:05:26;98683.44;;;20.42;53.61
82743;BME280;72483;50.656;7.216;2023-10-19T13:07:52;98681.66;;;20.49;52.92
82743;BME280;72483;50.656;7.216;2023-10-19T13:10:19;98684.09;;;20.51;52.94